Time;durP1;ratioP1;P1;durP2;ratioP2;P2;SDS_P1;SDS_P2;PMS_P1;PMS_P2;Temp;Humidity;BMP_temperature;BMP_pressure;BME280_temperature;BME280_humidity;BME280_pressure;Samples;Min_cycle;Max_cycle;Signal;HPM_P1;HPM_P2
2022/06/18 00:03:48;;;;;;;14.03;8.38;;;;;;;13.89;86.07;99729.98;4150730;83;21050;-84
2022/06/18 00:10:01;;;;;;;13.85;7.78;;;;;;;13.81;86.17;99733.83;4158427;84;21101;-84
2022/06/18 00:16:13;;;;;;;11.75;7.42;;;;;;;13.80;86.30;99725.95;4155794;83;20990;-84
2022/06/18 00:22:41;;;;;;;13.90;8.10;;;;;;;13.75;86.33;99724.34;4155746;84;21078;-84
2022/06/18 00:28:46;;;;;;;13.22;8.60;;;;;;;13.70;86.61;99721.93;4135192;84;21613;-84
2022/06/18 00:35:00;;;;;;;14.43;7.78;;;;;;;13.58;86.76;99722.20;4141721;83;21062;-84
2022/06/18 00:48:07;;;;;;;11.78;7.33;;;;;;;13.50;87.51;99710.92;4163798;83;21074;-85
2022/06/18 00:54:29;;;;;;;11.53;6.95;;;;;;;13.47;87.59;99717.17;4022604;86;21047;-84
2022/06/18 01:00:52;;;;;;;14.05;7.55;;;;;;;13.48;87.73;99722.10;4086895;83;21026;-84
2022/06/18 01:07:48;;;;;;;11.65;7.10;;;;;;;13.38;87.51;99717.27;4126712;85;21073;-85
2022/06/18 01:14:13;;;;;;;11.28;6.80;;;;;;;13.21;88.03;99712.35;4129813;85;21036;-84
2022/06/18 01:20:15;;;;;;;9.27;6.87;;;;;;;13.25;88.16;99720.84;4069052;85;21070;-84
2022/06/18 01:26:25;;;;;;;11.45;6.60;;;;;;;13.05;87.64;99717.25;4127893;85;21059;-84
2022/06/18 01:32:49;;;;;;;13.55;6.12;;;;;;;12.92;88.31;99712.55;4057669;85;22255;-84
2022/06/18 01:38:56;;;;;;;10.45;6.62;;;;;;;12.95;88.69;99713.17;4091259;86;21118;-84
2022/06/18 01:45:35;;;;;;;9.65;6.25;;;;;;;12.97;88.68;99702.61;4026274;86;21052;-84
2022/06/18 01:51:44;;;;;;;12.85;6.83;;;;;;;12.88;88.46;99700.73;4149833;84;21010;-84
2022/06/18 01:58:17;;;;;;;9.53;6.90;;;;;;;12.60;88.28;99701.15;4150947;84;21110;-84
2022/06/18 02:04:45;;;;;;;10.58;6.85;;;;;;;12.61;89.29;99697.80;4064204;85;21653;-84
2022/06/18 02:11:06;;;;;;;12.40;6.40;;;;;;;12.61;89.33;99691.73;4072734;85;21538;-84
2022/06/18 02:17:19;;;;;;;15.20;6.35;;;;;;;12.57;89.43;99688.73;4063440;85;21054;-84
2022/06/18 02:23:25;;;;;;;9.85;6.75;;;;;;;12.59;89.49;99689.16;4060331;85;21586;-84
2022/06/18 02:29:29;;;;;;;;;;;;;;;12.35;89.13;99684.90;4072070;85;21008;-84
2022/06/18 02:35:38;;;;;;;14.83;7.15;;;;;;;12.16;89.41;99687.73;4075858;85;20185;-84
2022/06/18 02:41:42;;;;;;;12.03;8.03;;;;;;;11.92;89.20;99688.12;4137595;84;21034;-84
2022/06/18 02:48:01;;;;;;;12.65;7.20;;;;;;;11.81;89.01;99687.14;4143266;84;20978;-84
2022/06/18 02:54:05;;;;;;;10.82;6.33;;;;;;;11.63;90.00;99686.06;4129929;84;21965;-84
2022/06/18 03:00:12;;;;;;;8.85;6.72;;;;;;;11.80;90.84;99680.08;4177631;83;89017;-84
2022/06/18 03:06:18;;;;;;;11.88;8.03;;;;;;;11.91;90.55;99686.55;4259552;82;21058;-84
2022/06/18 03:12:20;;;;;;;14.93;7.67;;;;;;;11.86;90.52;99681.36;4251310;82;21016;-85
2022/06/18 03:18:31;;;;;;;14.30;9.08;;;;;;;11.93;91.19;99686.17;4255589;82;22039;-84
2022/06/18 03:24:36;;;;;;;12.88;8.45;;;;;;;12.06;91.30;99677.38;4248422;82;21013;-84
2022/06/18 03:30:43;;;;;;;15.00;9.38;;;;;;;12.13;91.28;99679.44;4256269;82;21547;-84
2022/06/18 03:36:45;;;;;;;14.13;8.67;;;;;;;12.17;91.23;99685.77;4250452;82;22133;-84
2022/06/18 03:42:53;;;;;;;13.20;8.38;;;;;;;12.21;91.30;99686.63;4237159;82;21629;-84
2022/06/18 03:49:06;;;;;;;12.33;7.42;;;;;;;12.23;91.25;99684.31;4250528;82;21233;-84
2022/06/18 03:55:20;;;;;;;12.98;7.72;;;;;;;12.27;91.40;99685.95;4236145;83;22105;-84
2022/06/18 04:01:51;;;;;;;9.13;6.28;;;;;;;12.30;91.44;99667.36;4179599;83;21973;-85
2022/06/18 04:14:44;;;;;;;9.55;5.55;;;;;;;12.52;91.81;99674.75;4179560;83;21637;-85
2022/06/18 04:27:26;;;;;;;5.55;4.40;;;;;;;12.77;91.82;99681.94;4180032;83;21090;-84
2022/06/18 04:33:38;;;;;;;8.80;5.50;;;;;;;12.89;91.83;99676.20;4163687;83;21385;-84
2022/06/18 04:41:00;;;;;;;7.42;5.20;;;;;;;13.00;91.79;99681.27;4141297;83;21092;-84
2022/06/18 04:47:18;;;;;;;9.08;4.10;;;;;;;13.15;91.83;99676.17;4133951;84;21466;-84
2022/06/18 04:53:21;;;;;;;9.30;4.67;;;;;;;13.32;91.69;99683.83;4150807;84;21034;-85
2022/06/18 05:00:14;;;;;;;7.53;4.25;;;;;;;13.45;91.78;99675.50;4136652;84;21570;-84
2022/06/18 05:06:35;;;;;;;9.37;4.73;;;;;;;13.61;91.95;99681.56;4127489;85;21063;-86
2022/06/18 05:13:20;;;;;;;5.10;3.58;;;;;;;13.81;92.02;99678.03;3909056;89;21121;-84
2022/06/18 05:19:37;;;;;;;;;;;;;;;14.04;91.94;99681.36;3955144;88;21051;-85
2022/06/18 05:33:18;;;;;;;7.55;4.17;;;;;;;14.54;91.89;99675.06;4009498;87;21041;-85
2022/06/18 05:39:29;;;;;;;8.70;5.08;;;;;;;14.87;91.96;99681.73;4127427;82;22049;-84
2022/06/18 05:45:30;;;;;;;6.37;4.60;;;;;;;15.18;91.93;99691.30;4230307;82;21144;-86
2022/06/18 05:51:51;;;;;;;7.42;3.98;;;;;;;15.44;91.78;99697.33;4266586;82;21001;-84
2022/06/18 05:58:15;;;;;;;8.78;4.72;;;;;;;15.68;91.60;99693.66;4252287;82;21046;-86
2022/06/18 06:04:24;;;;;;;7.90;4.53;;;;;;;15.95;91.45;99683.22;4184143;83;20982;-86
2022/06/18 06:24:34;;;;;;;12.60;5.17;;;;;;;16.75;90.75;99667.17;4186459;83;21009;-85
2022/06/18 06:30:38;;;;;;;12.25;5.20;;;;;;;17.09;90.14;99669.61;4187298;83;21081;-85
2022/06/18 06:36:47;;;;;;;4.90;2.90;;;;;;;17.43;89.37;99664.27;4267056;82;21078;-85
2022/06/18 06:42:56;;;;;;;6.17;3.20;;;;;;;17.68;88.18;99662.78;4224789;82;21596;-85
2022/06/18 06:48:58;;;;;;;8.15;3.40;;;;;;;17.96;86.95;99663.34;4223752;82;20997;-86
2022/06/18 07:02:52;;;;;;;4.00;2.47;;;;;;;19.00;85.71;99655.78;4214621;82;22019;-86
2022/06/18 07:09:09;;;;;;;5.92;2.62;;;;;;;19.97;84.60;99657.58;4239428;82;21004;-86
2022/06/18 07:22:24;;;;;;;5.55;3.02;;;;;;;21.52;80.96;99650.63;4238385;82;20113;-86
2022/06/18 07:28:42;;;;;;;4.67;3.17;;;;;;;22.28;81.26;99648.42;4231649;82;21751;-87
2022/06/18 07:34:59;;;;;;;5.75;3.15;;;;;;;22.92;80.02;99642.09;4236919;82;21905;-87
2022/06/18 07:41:28;;;;;;;6.12;2.75;;;;;;;23.19;78.70;99646.67;4221898;81;21020;-86
2022/06/18 07:47:45;;;;;;;3.58;2.40;;;;;;;23.42;77.29;99647.02;4135069;86;21589;-86
2022/06/18 07:54:03;;;;;;;8.08;3.08;;;;;;;23.80;75.93;99652.02;4209831;84;21514;-87
2022/06/18 08:00:06;;;;;;;7.28;2.80;;;;;;;23.85;74.84;99658.42;4159957;84;21499;-84
2022/06/18 08:06:38;;;;;;;4.40;3.17;;;;;;;23.81;73.64;99659.77;4165434;84;21380;-85
2022/06/18 08:13:04;;;;;;;2.58;2.15;;;;;;;23.96;72.39;99667.89;4177245;84;21093;-86
2022/06/18 08:19:29;;;;;;;7.05;2.77;;;;;;;23.95;70.54;99663.51;4118596;85;21038;-84
2022/06/18 08:25:56;;;;;;;2.65;2.05;;;;;;;23.98;69.72;99664.04;4165589;84;21621;-85
2022/06/18 08:31:57;;;;;;;;;;;;;;;24.18;68.80;99662.56;4152349;84;21062;-85
2022/06/18 08:37:59;;;;;;;4.33;1.98;;;;;;;24.18;66.02;99652.00;4103028;86;20124;-86
2022/06/18 08:44:22;;;;;;;4.00;1.60;;;;;;;24.23;66.90;99645.20;4154587;84;21014;-86
2022/06/18 08:51:00;;;;;;;5.17;1.72;;;;;;;24.14;65.46;99643.73;4029962;84;21070;-85
2022/06/18 08:57:41;;;;;;;2.55;1.60;;;;;;;24.12;64.86;99631.41;4155817;84;21066;-86
2022/06/18 09:04:19;;;;;;;2.40;1.52;;;;;;;24.02;63.45;99617.97;4155307;84;21857;-86
2022/06/18 09:17:52;;;;;;;2.77;1.70;;;;;;;24.18;60.20;99604.45;4135854;84;21029;-86
2022/06/18 09:24:17;;;;;;;2.55;1.40;;;;;;;24.36;59.73;99596.21;4201043;83;21014;-86
2022/06/18 09:30:38;;;;;;;3.80;1.42;;;;;;;24.89;57.26;99560.70;4192906;83;21051;-85
2022/06/18 09:36:48;;;;;;;4.05;1.37;;;;;;;24.89;57.26;99560.70;4198486;83;22277;-85
2022/06/18 09:42:57;;;;;;;2.95;1.00;;;;;;;25.39;56.68;99568.77;4075573;85;21035;-85
2022/06/18 09:49:07;;;;;;;2.00;1.10;;;;;;;25.85;54.49;99569.08;4156908;84;21529;-85
2022/06/18 09:55:35;;;;;;;1.10;1.02;;;;;;;26.15;54.79;99565.43;4163156;84;21078;-85
2022/06/18 10:01:52;;;;;;;4.12;1.30;;;;;;;26.39;53.46;99557.94;4159773;84;21125;-86
2022/06/18 10:07:55;;;;;;;2.47;1.10;;;;;;;26.35;53.06;99551.71;4183386;84;21510;-84
2022/06/18 10:14:24;;;;;;;2.52;1.30;;;;;;;26.41;50.69;99558.87;4156362;84;21034;-86
2022/06/18 10:20:46;;;;;;;1.20;1.10;;;;;;;26.76;50.46;99544.68;4154984;84;21114;-85
2022/06/18 10:27:18;;;;;;;2.62;1.10;;;;;;;27.52;49.51;99523.97;4157628;84;21064;-85
2022/06/18 10:40:55;;;;;;;1.75;1.05;;;;;;;27.41;48.20;99502.02;4149840;83;21074;-87
2022/06/18 10:47:16;;;;;;;4.30;1.30;;;;;;;26.90;47.62;99499.08;4163457;84;21075;-85
2022/06/18 10:53:23;;;;;;;6.97;1.30;;;;;;;26.36;47.62;99504.78;4183289;84;21077;-85
2022/06/18 10:59:39;;;;;;;2.17;1.10;;;;;;;26.11;47.08;99501.66;4174876;84;20999;-86
2022/06/18 11:05:45;;;;;;;2.98;1.22;;;;;;;26.50;48.22;99489.46;4168850;83;21570;-85
2022/06/18 11:11:56;;;;;;;6.67;1.60;;;;;;;27.27;48.02;99485.05;4237148;82;21605;-85
2022/06/18 11:18:05;;;;;;;3.30;1.07;;;;;;;27.87;47.06;99489.86;4244370;81;21011;-86
2022/06/18 11:24:41;;;;;;;6.47;1.32;;;;;;;28.47;45.50;99489.53;4223840;82;21099;-85
2022/06/18 11:30:53;;;;;;;2.62;1.10;;;;;;;29.00;45.17;99474.73;4215568;82;21845;-85
2022/06/18 11:44:04;;;;;;;3.40;1.00;;;;;;;29.91;43.19;99470.06;4253715;82;21490;-86
2022/06/18 11:57:24;;;;;;;2.77;1.07;;;;;;;30.08;42.38;99452.69;4242831;83;20999;-85
2022/06/18 12:04:08;;;;;;;1.15;1.05;;;;;;;29.86;41.71;99439.72;4218256;83;21579;-85
2022/06/18 12:10:21;;;;;;;1.80;1.27;;;;;;;29.61;41.45;99422.84;4236362;82;20999;-85
2022/06/18 12:16:55;;;;;;;4.60;1.30;;;;;;;28.94;39.16;99416.11;4232367;82;21002;-85
2022/06/18 12:23:17;;;;;;;2.65;1.20;;;;;;;28.63;39.73;99407.38;4238897;82;20993;-85
2022/06/18 12:37:30;;;;;;;3.00;1.10;;;;;;;28.23;39.69;99402.33;4167852;83;21568;-84
2022/06/18 12:44:00;;;;;;;1.95;1.32;;;;;;;27.80;39.33;99389.59;4173891;83;21075;-85
2022/06/18 12:50:33;;;;;;;2.15;1.20;;;;;;;27.43;39.75;99387.67;4230228;82;21126;-84
2022/06/18 12:56:44;;;;;;;3.72;1.30;;;;;;;27.18;39.79;99384.70;4236537;82;21027;-83
2022/06/18 13:03:16;;;;;;;1.98;1.32;;;;;;;27.12;39.73;99381.61;4233874;83;21088;-84
2022/06/18 13:10:03;;;;;;;1.35;1.00;;;;;;;26.94;39.73;99364.84;4209916;83;21082;-86
2022/06/18 13:16:13;;;;;;;2.85;1.10;;;;;;;26.80;41.54;99353.69;4160745;83;21042;-84
2022/06/18 13:22:33;;;;;;;1.55;1.17;;;;;;;26.76;41.41;99339.05;4163954;84;21844;-84
2022/06/18 13:28:39;;;;;;;2.47;1.47;;;;;;;26.67;41.20;99338.31;4122708;83;21030;-85
2022/06/18 13:35:07;;;;;;;2.30;1.05;;;;;;;26.53;42.03;99331.95;4279458;82;20994;-85
2022/06/18 13:41:47;;;;;;;3.05;1.80;;;;;;;26.49;42.08;99318.70;4194618;83;21026;-85
2022/06/18 13:48:29;;;;;;;2.72;1.50;;;;;;;26.49;42.37;99319.48;4173204;83;21066;-84
2022/06/18 13:54:54;;;;;;;2.80;1.05;;;;;;;26.45;42.11;99315.30;4199015;83;21074;-84
2022/06/18 14:01:13;;;;;;;2.08;1.10;;;;;;;26.46;41.90;99311.23;4219817;83;21514;-84
2022/06/18 14:07:15;;;;;;;2.58;1.22;;;;;;;26.48;41.49;99301.71;4189474;83;21527;-85
2022/06/18 14:13:21;;;;;;;2.92;1.40;;;;;;;26.45;41.90;99289.39;4225415;83;21534;-85
2022/06/18 14:19:26;;;;;;;3.30;1.32;;;;;;;26.49;42.71;99278.78;4162339;84;21142;-84
2022/06/18 14:26:02;;;;;;;3.95;1.40;;;;;;;26.58;43.42;99276.53;4208682;83;21510;-84
2022/06/18 14:32:32;;;;;;;1.77;1.30;;;;;;;26.57;43.15;99275.78;4199659;83;21018;-84
2022/06/18 14:38:41;;;;;;;2.02;1.22;;;;;;;26.56;42.86;99272.05;4194528;83;21543;-85
2022/06/18 14:45:01;;;;;;;5.37;1.60;;;;;;;26.50;42.91;99261.32;4167968;83;21031;-84
2022/06/18 14:51:54;;;;;;;1.90;1.45;;;;;;;26.48;43.35;99254.78;4106892;84;21075;-84
2022/06/18 14:58:22;;;;;;;3.92;1.50;;;;;;;26.40;43.67;99248.57;4153995;84;21054;-84
2022/06/18 15:04:49;;;;;;;2.37;1.67;;;;;;;26.46;43.13;99239.64;4151527;84;20994;-84
2022/06/18 15:10:56;;;;;;;;;;;;;;;26.47;43.75;99229.34;4100439;84;21063;-84
2022/06/18 15:23:47;;;;;;;3.15;1.40;;;;;;;26.37;44.97;99213.04;4158839;84;21047;-84
2022/06/18 15:29:50;;;;;;;2.85;1.30;;;;;;;26.34;45.01;99206.98;4226048;82;20970;-84
2022/06/18 15:35:55;;;;;;;4.37;1.80;;;;;;;26.17;46.30;99212.19;4213616;82;21768;-83
2022/06/18 15:42:19;;;;;;;1.85;1.40;;;;;;;26.06;44.96;99202.89;4179621;83;21587;-84
2022/06/18 15:48:39;;;;;;;5.28;2.35;;;;;;;26.00;45.11;99192.78;4200518;83;21439;-84
2022/06/18 15:54:45;;;;;;;2.90;1.40;;;;;;;25.93;44.91;99186.10;4172050;83;21034;-84
2022/06/18 16:00:47;;;;;;;2.62;1.62;;;;;;;25.84;45.35;99174.28;4204363;83;21026;-84
2022/06/18 16:06:53;;;;;;;3.72;1.70;;;;;;;25.72;45.35;99164.05;4222969;83;20997;-85
2022/06/18 16:13:04;;;;;;;2.05;1.57;;;;;;;25.55;45.45;99130.63;4198577;83;21027;-84
2022/06/18 16:19:08;;;;;;;2.58;1.47;;;;;;;25.69;45.00;99164.22;4198663;83;21042;-84
2022/06/18 16:25:22;;;;;;;3.05;1.57;;;;;;;25.64;44.91;99172.64;4202728;83;21026;-85
2022/06/18 16:31:27;;;;;;;4.37;1.75;;;;;;;25.60;45.22;99173.45;4200619;83;22043;-84
2022/06/18 16:37:33;;;;;;;4.53;1.80;;;;;;;25.54;45.53;99166.90;4168098;83;21068;-84
2022/06/18 16:43:34;;;;;;;2.33;1.30;;;;;;;25.48;45.93;99156.17;4204018;83;21042;-85
2022/06/18 16:49:41;;;;;;;2.45;1.45;;;;;;;25.32;46.84;99143.91;4213119;83;21870;-84
2022/06/18 16:55:44;;;;;;;3.12;1.75;;;;;;;25.32;46.84;99143.91;4195592;83;20987;-84
2022/06/18 17:01:46;;;;;;;3.58;2.40;;;;;;;25.13;47.28;99147.20;4185888;83;21054;-85
2022/06/18 17:07:48;;;;;;;3.62;1.92;;;;;;;25.13;47.28;99147.20;4203410;83;21536;-84
2022/06/18 17:13:52;;;;;;;5.72;1.85;;;;;;;25.04;47.49;99139.60;4186763;83;21043;-84
2022/06/18 17:19:54;;;;;;;3.25;1.98;;;;;;;24.82;48.01;99123.59;4191199;83;21093;-84
2022/06/18 17:32:24;;;;;;;2.20;1.85;;;;;;;24.68;48.75;99137.43;4196127;83;22177;-84
2022/06/18 17:38:31;;;;;;;3.65;1.90;;;;;;;24.51;48.84;99137.70;4236706;83;21003;-84
2022/06/18 17:44:32;;;;;;;3.22;2.30;;;;;;;24.43;49.03;99136.44;4240852;82;20995;-84
2022/06/18 17:50:36;;;;;;;2.52;2.05;;;;;;;24.31;49.29;99136.58;4233334;82;21520;-84
2022/06/18 17:56:45;;;;;;;2.85;1.98;;;;;;;24.21;49.41;99142.77;4238510;82;21045;-85
2022/06/18 18:02:52;;;;;;;3.08;2.30;;;;;;;24.11;49.47;99140.42;4249869;82;21689;-84
2022/06/18 18:08:54;;;;;;;4.25;2.08;;;;;;;23.96;49.82;99138.81;4261588;83;20988;-84
2022/06/18 18:15:05;;;;;;;3.52;2.00;;;;;;;23.86;50.06;99144.81;4262273;82;21086;-85
2022/06/18 18:21:09;;;;;;;3.30;2.15;;;;;;;23.76;50.25;99146.80;4259581;82;21014;-84
2022/06/18 18:27:15;;;;;;;2.87;2.52;;;;;;;23.64;50.56;99148.29;4240709;82;21974;-84
2022/06/18 18:33:28;;;;;;;3.98;2.65;;;;;;;23.50;50.75;99149.63;4259214;83;21986;-85
2022/06/18 18:39:31;;;;;;;5.37;2.67;;;;;;;23.34;50.91;99151.23;4230114;82;20986;-84
2022/06/18 18:45:44;;;;;;;6.60;3.00;;;;;;;23.18;51.06;99159.79;4197353;82;21016;-84
2022/06/18 18:51:47;;;;;;;6.65;2.75;;;;;;;23.02;51.45;99163.56;4209402;84;20982;-84
2022/06/18 18:57:53;;;;;;;8.75;3.22;;;;;;;22.82;52.15;99170.69;4193240;84;21033;-84
2022/06/18 19:04:02;;;;;;;6.50;3.92;;;;;;;22.56;52.99;99176.98;4183149;84;21027;-84
2022/06/18 19:10:06;;;;;;;9.20;4.25;;;;;;;22.29;54.06;99176.67;4144714;84;21040;-84
2022/06/18 19:16:10;;;;;;;14.43;8.08;;;;;;;22.05;54.91;99188.64;4185802;84;21056;-84
2022/06/18 19:22:21;;;;;;;23.70;12.30;;;;;;;21.77;55.63;99187.51;4146775;84;21134;-84
2022/06/18 19:28:37;;;;;;;16.25;9.98;;;;;;;21.53;56.38;99192.58;4164720;83;21066;-84
2022/06/18 19:34:38;;;;;;;25.10;11.63;;;;;;;21.28;57.07;99200.87;4183063;84;21068;-84
2022/06/18 19:40:40;;;;;;;21.33;11.08;;;;;;;21.00;57.61;99187.77;4200708;84;21020;-85
2022/06/18 19:46:51;;;;;;;20.60;12.03;;;;;;;20.80;58.31;99177.96;4219489;83;21032;-84
2022/06/18 19:52:54;;;;;;;22.02;13.00;;;;;;;20.62;59.26;99177.67;4215855;83;20955;-84
2022/06/18 19:59:04;;;;;;;22.13;13.00;;;;;;;20.28;59.55;99176.73;4226350;83;21071;-84
2022/06/18 20:05:06;;;;;;;26.27;12.70;;;;;;;20.01;60.41;99178.98;4222030;83;21005;-84
2022/06/18 20:11:16;;;;;;;22.48;12.07;;;;;;;19.84;61.25;99187.13;4214614;83;21030;-83
2022/06/18 20:17:26;;;;;;;23.83;11.80;;;;;;;19.65;61.79;99169.91;4167842;84;21035;-84
2022/06/18 20:23:37;;;;;;;19.27;10.00;;;;;;;19.47;62.40;99179.22;4166390;83;21057;-84
2022/06/18 20:29:40;;;;;;;16.87;9.40;;;;;;;19.29;63.35;99180.22;4238036;82;21014;-83
2022/06/18 20:35:48;;;;;;;16.60;9.98;;;;;;;19.10;64.22;99185.93;4247577;83;20988;-84
2022/06/18 20:41:56;;;;;;;22.15;13.13;;;;;;;18.93;64.73;99179.34;4249978;82;21032;-84
2022/06/18 20:48:03;;;;;;;22.65;10.30;;;;;;;18.80;65.46;99183.94;4229754;82;21634;-84
2022/06/18 21:00:35;;;;;;;18.73;10.85;;;;;;;18.49;66.84;99178.58;4336641;82;20993;-83
2022/06/18 21:06:45;;;;;;;18.52;10.88;;;;;;;18.33;67.68;99171.50;4244559;82;21035;-84
2022/06/18 21:12:51;;;;;;;18.85;11.22;;;;;;;18.14;68.33;99168.05;4248786;82;21026;-83
2022/06/18 21:18:54;;;;;;;16.93;10.00;;;;;;;17.99;69.01;99175.04;4242956;83;21066;-83
2022/06/18 21:24:59;;;;;;;16.97;10.48;;;;;;;17.85;69.72;99164.19;4220390;82;21015;-83
2022/06/18 21:37:31;;;;;;;18.25;10.23;;;;;;;17.57;71.08;99169.34;4240764;82;21600;-83
2022/06/18 21:43:32;;;;;;;15.40;10.70;;;;;;;17.52;71.57;99167.04;4235665;82;21525;-83
2022/06/18 21:49:37;;;;;;;16.37;10.50;;;;;;;17.47;72.09;99164.14;4234701;82;21798;-83
2022/06/18 21:55:51;;;;;;;20.70;10.03;;;;;;;17.36;72.62;99164.06;4181762;83;21037;-83
2022/06/18 22:02:02;;;;;;;20.72;10.55;;;;;;;17.25;73.08;99160.06;4183422;83;21062;-84
2022/06/18 22:08:06;;;;;;;17.48;10.65;;;;;;;17.19;73.62;99161.10;4212733;83;21014;-85
2022/06/18 22:20:36;;;;;;;17.87;10.55;;;;;;;17.04;74.84;99161.11;4185038;83;20973;-83
2022/06/18 22:26:40;;;;;;;15.88;9.73;;;;;;;16.96;75.08;99163.00;4183185;83;20998;-84
2022/06/18 22:32:42;;;;;;;20.12;12.88;;;;;;;16.84;75.72;99163.52;4183939;83;22321;-84
2022/06/18 22:38:52;;;;;;;19.35;10.05;;;;;;;16.87;76.22;99164.87;4181071;83;21077;-85
2022/06/18 22:44:55;;;;;;;23.32;12.82;;;;;;;16.84;76.61;99171.81;4254126;82;21539;-84
2022/06/18 22:50:56;;;;;;;26.55;15.05;;;;;;;16.71;76.82;99177.08;4222802;82;21067;-84
2022/06/18 22:57:02;;;;;;;21.48;12.68;;;;;;;16.60;76.96;99177.79;4232806;83;21554;-83
2022/06/18 23:03:09;;;;;;;20.68;13.93;;;;;;;16.53;77.65;99179.84;4237271;83;21054;-83
2022/06/18 23:09:16;;;;;;;22.62;13.30;;;;;;;16.47;77.73;99168.47;4227070;83;21079;-83
2022/06/18 23:15:18;;;;;;;21.82;12.07;;;;;;;16.32;77.99;99171.74;4248800;83;21067;-83
2022/06/18 23:21:21;;;;;;;20.75;10.88;;;;;;;16.16;78.57;99173.62;4249514;83;20996;-83
2022/06/18 23:27:22;;;;;;;20.35;12.60;;;;;;;16.12;79.15;99177.62;4253594;83;21003;-83
2022/06/18 23:33:35;;;;;;;24.40;11.85;;;;;;;16.01;79.15;99174.16;4181761;83;21038;-83
2022/06/18 23:39:45;;;;;;;16.73;11.12;;;;;;;15.85;79.74;99177.42;4231443;82;20991;-83
2022/06/18 23:45:51;;;;;;;19.27;10.75;;;;;;;15.76;79.90;99173.55;4198993;83;21007;-83
2022/06/18 23:52:01;;;;;;;16.05;10.68;;;;;;;15.68;80.36;99174.20;4188547;83;20987;-83
2022/06/18 23:58:09;;;;;;;17.17;11.18;;;;;;;15.61;80.57;99169.50;4197372;83;21026;-83
